createdAt,value
2018-06-03T00:00:54.217Z,94.20
2018-06-03T00:02:58.046Z,111.07
2018-06-03T00:05:02.047Z,97.90
2018-06-03T00:07:05.989Z,92.07
2018-06-03T00:09:10.065Z,115.80
2018-06-03T00:11:14.194Z,73.10
2018-06-03T00:13:17.929Z,90.67
2018-06-03T00:15:21.865Z,99.13
2018-06-03T00:17:25.589Z,80.20
2018-06-03T00:19:29.324Z,88.97
2018-06-03T00:21:42.769Z,84.47
2018-06-03T00:23:46.522Z,84.20
2018-06-03T00:25:50.606Z,94.23
2018-06-03T00:27:54.805Z,87.43
2018-06-03T00:29:59.710Z,93.80
2018-06-03T00:32:04.173Z,88.27
2018-06-03T00:34:08.176Z,81.57
2018-06-03T00:36:47.566Z,89.00
2018-06-03T00:38:51.847Z,86.13
2018-06-03T00:40:56.101Z,92.00
2018-06-03T00:43:00.385Z,96.63
2018-06-03T00:45:05.651Z,88.27
2018-06-03T00:47:09.931Z,83.63
2018-06-03T00:49:14.198Z,96.23
2018-06-03T00:51:18.478Z,87.80
2018-06-03T00:53:22.743Z,87.53
2018-06-03T00:55:27.018Z,90.87
2018-06-03T00:57:31.301Z,83.47
2018-06-03T00:59:35.563Z,85.80
2018-06-03T01:01:40.026Z,91.30
2018-06-03T01:03:44.026Z,76.70
2018-06-03T01:05:48.288Z,94.93
2018-06-03T01:07:52.634Z,88.23
2018-06-03T01:09:57.102Z,91.57
2018-06-03T01:12:01.370Z,94.40
2018-06-03T01:14:10.128Z,72.83
2018-06-03T01:16:14.375Z,93.37
2018-06-03T01:18:18.656Z,89.37
2018-06-03T01:20:22.649Z,89.50
2018-06-03T01:22:26.738Z,85.80
2018-06-03T01:24:31.040Z,85.43
2018-06-03T01:26:35.314Z,82.73
2018-06-03T01:28:39.601Z,84.57
2018-06-03T01:30:43.887Z,46.30
2018-06-03T01:32:48.147Z,76.10
2018-06-03T01:34:52.414Z,78.57
2018-06-03T01:36:56.730Z,45.53
2018-06-03T01:39:00.993Z,67.90
2018-06-03T01:41:05.674Z,74.17
2018-06-03T01:43:09.982Z,78.70
2018-06-03T01:45:14.249Z,78.67
2018-06-03T01:47:18.363Z,81.73
2018-06-03T01:49:22.578Z,70.27
2018-06-03T01:51:26.894Z,76.00
2018-06-03T01:53:31.205Z,75.63
2018-06-03T01:55:35.438Z,58.70
2018-06-03T01:57:39.682Z,72.53
2018-06-03T01:59:44.042Z,88.03
2018-06-03T02:01:48.258Z,67.07
2018-06-03T02:03:52.519Z,69.73
2018-06-03T02:05:56.881Z,75.07
2018-06-03T02:08:01.114Z,78.83
2018-06-03T02:10:05.417Z,79.43
2018-06-03T02:12:09.724Z,79.50
2018-06-03T02:14:14.899Z,75.23
2018-06-03T02:16:19.170Z,77.67
2018-06-03T02:18:23.513Z,83.73
2018-06-03T02:20:27.944Z,90.17
2018-06-03T02:22:32.663Z,83.90
2018-06-03T02:24:36.962Z,82.57
2018-06-03T02:26:41.258Z,88.27
2018-06-03T02:28:45.558Z,94.63
2018-06-03T02:30:49.827Z,92.93
2018-06-03T02:32:54.078Z,88.77
2018-06-03T02:34:58.547Z,79.97
2018-06-03T02:37:02.826Z,85.77
2018-06-03T02:39:06.987Z,82.37
2018-06-03T02:41:11.290Z,94.03
2018-06-03T02:43:15.562Z,77.80
2018-06-03T02:45:19.869Z,80.10
2018-06-03T02:47:24.210Z,83.43
2018-06-03T02:49:28.511Z,81.40
2018-06-03T02:51:32.741Z,78.63
2018-06-03T02:53:37.066Z,96.73
2018-06-03T02:55:41.322Z,91.37
2018-06-03T02:57:45.581Z,76.77
2018-06-03T02:59:49.838Z,78.40
2018-06-03T03:02:03.530Z,74.77
2018-06-03T03:04:07.794Z,96.53
2018-06-03T03:06:12.143Z,92.20
2018-06-03T03:08:16.438Z,90.70
2018-06-03T03:10:20.753Z,98.63
2018-06-03T03:12:25.215Z,92.30
2018-06-03T03:14:29.497Z,92.70
2018-06-03T03:16:33.496Z,89.07
2018-06-03T03:18:37.890Z,80.70
2018-06-03T03:20:42.248Z,78.77
2018-06-03T03:22:46.518Z,98.40
2018-06-03T03:24:50.871Z,99.53
2018-06-03T03:26:55.165Z,89.87
2018-06-03T03:28:59.457Z,98.67
2018-06-03T03:31:03.729Z,86.60
2018-06-03T03:33:08.012Z,93.63
2018-06-03T03:35:12.278Z,97.03
2018-06-03T03:37:16.536Z,87.63
2018-06-03T03:39:20.809Z,96.10
2018-06-03T03:41:25.078Z,94.43
2018-06-03T03:43:29.373Z,101.03
2018-06-03T03:45:33.647Z,99.40
2018-06-03T03:47:38.228Z,90.77
2018-06-03T03:49:42.513Z,83.23
2018-06-03T03:51:46.764Z,92.23
2018-06-03T03:53:51.078Z,93.73
2018-06-03T03:55:55.351Z,94.30
2018-06-03T03:57:59.681Z,93.87
2018-06-03T04:00:03.962Z,98.10
2018-06-03T04:02:08.250Z,99.67
2018-06-03T04:04:12.712Z,77.07
2018-06-03T04:06:17.000Z,101.63
2018-06-03T04:08:21.262Z,110.07
2018-06-03T04:10:25.517Z,96.67
2018-06-03T04:12:29.802Z,88.07
2018-06-03T04:14:34.079Z,96.43
2018-06-03T04:16:38.691Z,106.43
2018-06-03T04:18:42.996Z,91.67
2018-06-03T04:20:47.274Z,108.50
2018-06-03T04:22:51.546Z,98.80
2018-06-03T04:24:55.848Z,89.07
2018-06-03T04:27:00.192Z,95.63
2018-06-03T04:29:04.507Z,101.07
2018-06-03T04:31:08.835Z,85.90
2018-06-03T04:33:13.082Z,85.50
2018-06-03T04:35:17.370Z,88.20
2018-06-03T04:37:21.387Z,74.70
2018-06-03T04:39:25.719Z,87.40
2018-06-03T04:41:29.974Z,71.80
2018-06-03T04:43:34.244Z,76.03
2018-06-03T04:45:38.502Z,80.47
2018-06-03T04:47:42.771Z,83.53
2018-06-03T04:49:47.242Z,84.43
2018-06-03T04:51:51.516Z,79.97
2018-06-03T04:53:55.776Z,72.43
2018-06-03T04:55:59.868Z,72.07
2018-06-03T04:58:04.156Z,79.20
2018-06-03T05:00:08.386Z,68.70
2018-06-03T05:02:12.681Z,77.13
2018-06-03T05:04:16.793Z,77.60
2018-06-03T05:06:20.886Z,89.33
2018-06-03T05:08:25.231Z,78.77
2018-06-03T05:10:29.482Z,79.07
2018-06-03T05:12:33.978Z,81.67
2018-06-03T05:14:37.969Z,79.83
2018-06-03T05:16:42.239Z,73.07
2018-06-03T05:18:46.532Z,71.77
2018-06-03T05:20:50.799Z,70.83
2018-06-03T05:22:55.110Z,76.13
2018-06-03T05:24:59.394Z,70.93
2018-06-03T05:27:03.715Z,76.23
2018-06-03T05:29:08.239Z,64.53
2018-06-03T05:31:12.656Z,71.63
2018-06-03T05:33:16.983Z,69.67
2018-06-03T05:35:21.294Z,70.63
2018-06-03T05:37:25.654Z,63.37
2018-06-03T05:39:29.928Z,64.90
2018-06-03T05:41:34.232Z,38.73
2018-06-03T05:43:38.489Z,52.90
2018-06-03T05:45:42.770Z,56.03
2018-06-03T05:47:47.075Z,51.30
2018-06-03T05:49:51.357Z,51.97
2018-06-03T05:51:55.943Z,58.87
2018-06-03T05:54:00.634Z,57.97
2018-06-03T05:56:05.206Z,57.27
2018-06-03T05:58:09.706Z,48.67
2018-06-03T06:00:13.989Z,47.97
2018-06-03T06:02:18.263Z,48.50
2018-06-03T06:04:22.557Z,42.43
2018-06-03T06:06:26.838Z,54.07
2018-06-03T06:08:31.390Z,49.73
2018-06-03T06:10:35.694Z,53.00
2018-06-03T06:12:39.987Z,32.77
2018-06-03T06:14:44.582Z,48.93
2018-06-03T06:16:49.194Z,49.67
2018-06-03T06:18:53.558Z,53.20
2018-06-03T06:20:57.819Z,48.00
2018-06-03T06:23:02.088Z,58.83
2018-06-03T06:25:06.659Z,55.57
2018-06-03T06:27:10.667Z,47.07
2018-06-03T06:29:15.346Z,52.70
2018-06-03T06:31:19.358Z,48.23
2018-06-03T06:33:23.550Z,48.63
2018-06-03T06:35:28.059Z,49.50
2018-06-03T06:37:32.530Z,51.80
2018-06-03T06:39:36.835Z,48.70
2018-06-03T06:41:41.173Z,47.63
2018-06-03T06:43:45.603Z,43.23
2018-06-03T06:45:49.942Z,39.13
2018-06-03T06:47:54.265Z,41.30
2018-06-03T06:49:58.365Z,44.67
2018-06-03T06:52:03.633Z,49.53
2018-06-03T06:54:07.914Z,46.40
2018-06-03T06:56:11.887Z,45.10
2018-06-03T06:58:16.190Z,46.43
2018-06-03T07:00:20.212Z,53.53
2018-06-03T07:02:24.191Z,42.67
2018-06-03T07:04:28.663Z,31.87
2018-06-03T07:06:33.167Z,45.67
2018-06-03T07:08:37.625Z,28.00
2018-06-03T07:10:41.829Z,42.13
2018-06-03T07:12:45.728Z,38.03
2018-06-03T07:14:50.220Z,39.80
2018-06-03T07:16:54.770Z,40.80
2018-06-03T07:18:59.046Z,33.43
2018-06-03T07:21:03.591Z,40.00
2018-06-03T07:23:07.582Z,38.97
2018-06-03T07:25:11.858Z,36.77
2018-06-03T07:27:16.161Z,36.00
2018-06-03T07:29:20.517Z,40.13
2018-06-03T07:31:24.740Z,31.23
2018-06-03T07:33:29.415Z,39.87
2018-06-03T07:35:33.766Z,32.27
2018-06-03T07:37:38.098Z,40.87
2018-06-03T07:39:42.732Z,31.57
2018-06-03T07:41:47.024Z,29.90
2018-06-03T07:43:51.596Z,32.80
2018-06-03T07:45:55.875Z,33.53
2018-06-03T07:48:00.267Z,34.63
2018-06-03T07:50:04.844Z,31.23
2018-06-03T07:52:09.458Z,24.03
2018-06-03T07:54:13.715Z,35.43
2018-06-03T07:56:18.717Z,31.37
2018-06-03T07:58:22.986Z,36.67
2018-06-03T08:00:27.262Z,29.70
2018-06-03T08:02:31.526Z,30.87
2018-06-03T08:04:35.548Z,34.33
2018-06-03T08:06:39.456Z,36.13
2018-06-03T08:08:43.730Z,34.23
2018-06-03T08:10:48.198Z,32.00
2018-06-03T08:12:52.562Z,30.27
2018-06-03T08:14:56.855Z,34.00
2018-06-03T08:17:01.140Z,32.00
2018-06-03T08:19:06.027Z,37.07
2018-06-03T08:21:10.303Z,24.50
2018-06-03T08:23:14.562Z,28.17
2018-06-03T08:25:18.854Z,28.20
2018-06-03T08:27:23.144Z,28.87
2018-06-03T08:29:27.122Z,30.23
2018-06-03T08:31:31.402Z,31.70
2018-06-03T08:33:35.894Z,30.47
2018-06-03T08:35:40.172Z,27.40
2018-06-03T08:37:44.488Z,31.80
2018-06-03T08:39:48.762Z,33.03
2018-06-03T08:41:52.778Z,29.07
2018-06-03T08:43:57.090Z,30.43
2018-06-03T08:46:01.106Z,29.50
2018-06-03T08:48:05.299Z,22.40
2018-06-03T08:50:09.560Z,30.90
2018-06-03T08:52:13.830Z,26.67
2018-06-03T08:54:17.978Z,23.73
2018-06-03T08:56:22.446Z,19.97
2018-06-03T08:58:26.686Z,25.03
2018-06-03T09:00:30.794Z,26.70
2018-06-03T09:02:35.098Z,27.40
2018-06-03T09:04:39.114Z,30.30
2018-06-03T09:06:43.269Z,26.53
2018-06-03T09:08:47.527Z,25.10
2018-06-03T09:10:51.998Z,27.73
2018-06-03T09:12:56.247Z,16.50
2018-06-03T09:15:00.562Z,30.90
2018-06-03T09:17:05.254Z,28.70
2018-06-03T09:19:09.506Z,31.07
2018-06-03T09:21:13.721Z,26.70
2018-06-03T09:23:17.944Z,26.97
2018-06-03T09:25:22.882Z,26.50
2018-06-03T09:27:26.870Z,29.03
2018-06-03T09:29:31.143Z,27.47
2018-06-03T09:31:35.406Z,28.67
2018-06-03T09:33:39.766Z,31.10
2018-06-03T09:35:44.007Z,25.83
2018-06-03T09:37:48.270Z,24.87
2018-06-03T09:39:52.579Z,22.00
2018-06-03T09:41:56.948Z,22.93
2018-06-03T09:44:01.387Z,20.23
2018-06-03T09:46:05.722Z,27.57
2018-06-03T09:48:10.022Z,24.60
2018-06-03T09:50:14.306Z,28.00
2018-06-03T09:52:18.569Z,24.57
2018-06-03T09:54:22.891Z,22.93
2018-06-03T09:56:27.174Z,21.00
2018-06-03T09:58:31.439Z,21.93
2018-06-03T10:00:35.739Z,20.03
2018-06-03T10:02:40.189Z,26.07
2018-06-03T10:04:44.210Z,23.33
2018-06-03T10:06:48.374Z,34.50
2018-06-03T10:08:52.658Z,24.20
2018-06-03T10:10:56.719Z,28.77
2018-06-03T10:13:01.019Z,23.40
2018-06-03T10:15:05.639Z,24.43
2018-06-03T10:17:09.619Z,25.97
2018-06-03T10:19:13.875Z,23.43
2018-06-03T10:21:18.190Z,17.53
2018-06-03T10:23:22.486Z,23.80
2018-06-03T10:25:26.803Z,24.80
2018-06-03T10:27:31.103Z,18.60
2018-06-03T10:29:35.550Z,23.83
2018-06-03T10:31:39.818Z,27.10
2018-06-03T10:33:44.116Z,25.10
2018-06-03T10:35:48.383Z,21.80
2018-06-03T10:37:52.254Z,23.47
2018-06-03T10:39:56.575Z,23.53
2018-06-03T10:42:01.306Z,23.43
2018-06-03T10:44:05.959Z,21.53
2018-06-03T10:46:10.266Z,16.50
2018-06-03T10:48:14.650Z,20.17
2018-06-03T10:50:18.876Z,19.43
2018-06-03T10:52:23.131Z,18.90
2018-06-03T10:54:27.733Z,23.50
2018-06-03T10:56:32.242Z,19.10
2018-06-03T10:58:36.559Z,14.67
2018-06-03T11:00:40.842Z,22.60
2018-06-03T11:02:45.103Z,17.93
2018-06-03T11:04:49.373Z,19.10
2018-06-03T11:06:53.642Z,14.93
2018-06-03T11:08:57.896Z,17.70
2018-06-03T11:11:02.201Z,14.00
2018-06-03T11:13:06.475Z,15.37
2018-06-03T11:15:10.493Z,15.47
2018-06-03T11:17:14.753Z,21.40
2018-06-03T11:19:19.019Z,14.77
2018-06-03T11:21:23.285Z,15.70
2018-06-03T11:23:27.583Z,15.60
2018-06-03T11:25:31.847Z,16.33
2018-06-03T11:27:36.146Z,18.73
2018-06-03T11:29:40.633Z,15.40
2018-06-03T11:31:44.951Z,17.30
2018-06-03T11:33:49.490Z,16.27
2018-06-03T11:35:53.758Z,22.33
2018-06-03T11:37:57.747Z,19.70
2018-06-03T11:40:02.117Z,17.00
2018-06-03T11:42:06.746Z,19.60
2018-06-03T11:44:11.026Z,19.10
2018-06-03T11:46:15.558Z,18.77
2018-06-03T11:48:19.869Z,19.57
2018-06-03T11:50:24.376Z,16.60
2018-06-03T11:52:28.543Z,11.30
2018-06-03T11:54:32.969Z,17.27
2018-06-03T11:56:48.762Z,18.73
2018-06-03T11:58:53.103Z,16.93
2018-06-03T12:00:57.074Z,18.57
2018-06-03T12:03:01.422Z,13.73
2018-06-03T12:05:05.786Z,18.13
2018-06-03T12:07:10.075Z,19.63
2018-06-03T12:09:14.336Z,21.50
2018-06-03T12:11:18.596Z,16.60
2018-06-03T12:13:22.751Z,20.57
2018-06-03T12:15:27.233Z,20.43
2018-06-03T12:17:31.826Z,25.97
2018-06-03T12:19:36.120Z,26.37
2018-06-03T12:21:40.615Z,21.37
2018-06-03T12:23:44.886Z,24.33
2018-06-03T12:25:49.315Z,21.83
2018-06-03T13:30:35.097Z,20.50
2018-06-03T13:32:39.361Z,19.70
2018-06-03T13:34:43.625Z,16.17
2018-06-03T13:36:47.874Z,19.93
2018-06-03T13:38:52.137Z,21.47
2018-06-03T13:40:56.615Z,20.37
2018-06-03T13:43:00.872Z,21.20
2018-06-03T13:45:05.227Z,13.73
2018-06-03T13:47:09.406Z,10.03
2018-06-03T13:49:13.657Z,16.70
2018-06-03T13:51:17.934Z,20.03
2018-06-03T13:53:22.239Z,19.13
2018-06-03T13:55:26.494Z,21.60
2018-06-03T13:57:30.826Z,22.40
2018-06-03T13:59:35.161Z,20.60
2018-06-03T14:01:39.434Z,19.03
2018-06-03T14:03:43.490Z,20.83
2018-06-03T14:05:47.645Z,18.83
2018-06-03T14:07:51.915Z,23.57
2018-06-03T14:09:56.185Z,21.40
2018-06-03T14:12:00.522Z,20.73
2018-06-03T14:14:04.804Z,17.80
2018-06-03T14:16:09.123Z,17.80
2018-06-03T14:18:13.407Z,23.17
2018-06-03T14:20:17.702Z,17.40
2018-06-03T14:22:22.075Z,27.30
2018-06-03T14:24:26.074Z,21.40
2018-06-03T14:26:30.038Z,19.97
2018-06-03T14:28:34.055Z,20.10
2018-06-03T14:30:38.358Z,15.47
2018-06-03T14:32:42.359Z,19.90
2018-06-03T14:34:46.346Z,21.33
2018-06-03T14:36:50.670Z,19.70
2018-06-03T14:38:54.666Z,17.67
2018-06-03T14:40:58.670Z,18.70
2018-06-03T14:43:03.014Z,14.97
2018-06-03T14:45:07.278Z,16.50
2018-06-03T14:47:11.273Z,20.87
2018-06-03T14:49:15.341Z,16.03
2018-06-03T14:51:19.339Z,14.43
2018-06-03T14:53:23.638Z,16.60
2018-06-03T14:55:27.689Z,13.90
2018-06-03T14:57:31.687Z,14.60
2018-06-03T14:59:35.707Z,14.73
2018-06-03T15:01:39.967Z,15.23
2018-06-03T15:03:44.477Z,19.20
2018-06-03T15:05:49.295Z,12.87
2018-06-03T15:07:53.082Z,14.50
2018-06-03T15:09:56.966Z,11.80
2018-06-03T15:12:01.231Z,17.00
2018-06-03T15:14:05.495Z,15.13
2018-06-03T15:16:09.601Z,13.83
2018-06-03T15:18:14.046Z,26.17
2018-06-03T15:20:18.381Z,17.97
2018-06-03T15:22:22.867Z,20.10
2018-06-03T15:24:27.236Z,17.10
2018-06-03T15:26:31.342Z,20.47
2018-06-03T15:28:35.322Z,18.53
2018-06-03T15:30:39.646Z,24.80
2018-06-03T15:32:43.652Z,20.20
2018-06-03T15:34:47.919Z,23.47
2018-06-03T15:36:51.987Z,19.17
2018-06-03T15:38:56.250Z,21.57
2018-06-03T15:41:00.598Z,15.30
2018-06-03T15:43:04.598Z,19.30
2018-06-03T15:45:08.622Z,16.93
2018-06-03T15:47:12.590Z,20.03
2018-06-03T15:49:16.574Z,22.17
2018-06-03T15:51:21.245Z,16.87
2018-06-03T15:53:25.631Z,18.30
2018-06-03T15:55:29.609Z,23.43
2018-06-03T15:57:33.902Z,23.23
2018-06-03T15:59:38.226Z,23.63
2018-06-03T16:01:42.494Z,21.23
2018-06-03T16:03:46.894Z,22.17
2018-06-03T16:05:51.138Z,22.83
2018-06-03T16:07:56.266Z,20.17
2018-06-03T16:10:00.375Z,18.03
2018-06-03T16:12:04.391Z,21.00
2018-06-03T16:14:08.358Z,15.87
2018-06-03T16:16:12.434Z,17.27
2018-06-03T16:18:16.627Z,20.27
2018-06-03T16:20:20.947Z,23.60
2018-06-03T16:22:25.330Z,22.33
2018-06-03T16:24:29.282Z,21.73
2018-06-03T16:26:33.263Z,21.87
2018-06-03T16:28:37.282Z,20.20
2018-06-03T16:30:41.527Z,23.77
2018-06-03T16:32:45.694Z,25.70
2018-06-03T16:34:49.964Z,24.83
2018-06-03T16:36:54.239Z,16.57
2018-06-03T16:38:58.215Z,20.27
2018-06-03T16:41:02.231Z,25.73
2018-06-03T16:43:06.486Z,20.80
2018-06-03T16:45:10.956Z,24.07
2018-06-03T16:47:15.279Z,15.80
2018-06-03T16:49:19.630Z,15.63
2018-06-03T16:51:23.800Z,10.80
2018-06-03T16:53:28.514Z,16.27
2018-06-03T16:55:32.835Z,16.50
2018-06-03T16:57:36.860Z,23.50
2018-06-03T16:59:41.125Z,17.00
2018-06-03T17:01:45.168Z,17.83
2018-06-03T17:03:49.505Z,12.77
2018-06-03T17:05:53.229Z,13.93
2018-06-03T17:07:56.879Z,13.73
2018-06-03T17:10:00.743Z,12.10
2018-06-03T17:12:04.871Z,13.03
2018-06-03T17:14:09.128Z,10.27
2018-06-03T17:16:13.128Z,13.70
2018-06-03T17:18:17.350Z,11.17
2018-06-03T17:20:21.130Z,12.37
2018-06-03T17:22:25.155Z,12.83
2018-06-03T17:24:29.253Z,10.60
2018-06-03T17:26:33.206Z,10.90
2018-06-03T17:28:37.194Z,11.37
2018-06-03T17:30:41.215Z,15.40
2018-06-03T17:32:45.278Z,9.60
2018-06-03T17:34:49.917Z,13.60
2018-06-03T17:36:53.890Z,11.00
2018-06-03T17:38:57.885Z,11.07
2018-06-03T17:41:01.861Z,9.87
2018-06-03T17:43:05.830Z,11.63
2018-06-03T17:45:09.866Z,11.93
2018-06-03T17:47:13.887Z,10.70
2018-06-03T17:49:17.934Z,12.13
2018-06-03T17:51:21.818Z,9.37
2018-06-03T17:53:25.802Z,8.00
2018-06-03T17:55:29.847Z,10.97
2018-06-03T17:57:33.849Z,9.57
2018-06-03T17:59:37.878Z,8.83
2018-06-03T18:01:41.859Z,9.00
2018-06-03T18:03:45.907Z,8.80
2018-06-03T18:05:49.967Z,10.87
2018-06-03T18:07:54.071Z,9.70
2018-06-03T18:09:58.034Z,6.80
2018-06-03T18:12:01.751Z,7.93
2018-06-03T18:14:06.119Z,8.27
2018-06-03T18:16:10.047Z,8.40
2018-06-03T18:18:14.012Z,7.80
2018-06-03T18:20:18.292Z,6.57
2018-06-03T18:22:22.306Z,7.37
2018-06-03T18:24:26.310Z,7.23
2018-06-03T18:26:30.286Z,10.20
2018-06-03T18:28:34.276Z,6.90
2018-06-03T18:30:38.246Z,7.63
2018-06-03T18:32:42.211Z,8.97
2018-06-03T18:34:46.402Z,8.87
2018-06-03T18:36:50.482Z,6.20
2018-06-03T18:38:54.530Z,6.93
2018-06-03T18:40:58.535Z,7.63
2018-06-03T18:43:02.756Z,7.03
2018-06-03T18:45:06.727Z,9.43
2018-06-03T18:47:10.706Z,5.70
2018-06-03T18:49:14.694Z,6.57
2018-06-03T18:51:19.159Z,10.50
2018-06-03T18:53:23.205Z,5.57
2018-06-03T18:55:27.861Z,6.40
2018-06-03T18:57:32.133Z,8.20
2018-06-03T18:59:36.167Z,8.83
2018-06-03T19:01:40.170Z,8.80
2018-06-03T19:03:44.195Z,11.73
2018-06-03T19:05:48.481Z,10.87
2018-06-03T19:07:52.515Z,10.70
2018-06-03T19:09:56.545Z,13.80
2018-06-03T19:12:00.560Z,7.80
2018-06-03T19:14:05.584Z,6.10
2018-06-03T19:16:09.592Z,8.73
2018-06-03T19:18:13.619Z,8.10
2018-06-03T19:20:18.358Z,5.77
2018-06-03T19:22:22.356Z,6.10
2018-06-03T19:24:26.363Z,9.23
2018-06-03T19:26:31.012Z,7.67
2018-06-03T19:28:35.025Z,5.67
2018-06-03T19:30:39.000Z,10.53
2018-06-03T19:32:43.024Z,7.50
2018-06-03T19:34:47.101Z,12.23
2018-06-03T19:36:51.365Z,8.87
2018-06-03T19:38:55.337Z,7.73
2018-06-03T19:41:00.178Z,6.67
2018-06-03T19:43:04.188Z,11.43
2018-06-03T19:45:08.451Z,8.73
2018-06-03T19:47:12.491Z,11.50
2018-06-03T19:49:16.572Z,7.93
2018-06-03T19:51:20.551Z,8.83
2018-06-03T19:53:24.862Z,7.73
2018-06-03T19:55:28.893Z,9.10
2018-06-03T19:57:33.318Z,9.67
2018-06-03T19:59:37.583Z,7.50
2018-06-03T20:01:41.576Z,7.10
2018-06-03T20:03:45.653Z,7.80
2018-06-03T20:05:50.462Z,7.97
2018-06-03T20:07:54.434Z,8.00
2018-06-03T20:09:58.397Z,10.93
2018-06-03T20:12:02.523Z,9.97
2018-06-03T20:14:06.859Z,8.43
2018-06-03T20:16:10.932Z,9.37
2018-06-03T20:18:15.494Z,9.13
2018-06-03T20:20:20.250Z,9.10
2018-06-03T20:22:24.664Z,7.40
2018-06-03T20:24:28.942Z,11.37
2018-06-03T20:26:32.967Z,9.87
2018-06-03T20:28:36.946Z,10.23
2018-06-03T20:30:41.114Z,6.90
2018-06-03T20:32:44.863Z,8.13
2018-06-03T20:34:48.727Z,9.57
2018-06-03T20:36:52.813Z,10.57
2018-06-03T20:38:56.821Z,11.60
2018-06-03T20:41:01.072Z,10.60
2018-06-03T20:43:05.125Z,6.60
2018-06-03T20:45:09.358Z,10.73
2018-06-03T20:47:13.508Z,10.80
2018-06-03T20:49:17.568Z,8.07
2018-06-03T20:51:21.538Z,7.87
2018-06-03T20:53:25.585Z,7.17
2018-06-03T20:55:29.526Z,6.87
2018-06-03T20:57:33.540Z,7.60
2018-06-03T20:59:37.505Z,7.80
2018-06-03T21:01:41.779Z,9.80
2018-06-03T21:03:45.786Z,7.47
2018-06-03T21:05:50.099Z,6.37
2018-06-03T21:07:54.170Z,7.67
2018-06-03T21:09:58.133Z,8.87
2018-06-03T21:12:02.140Z,13.53
2018-06-03T21:14:06.282Z,7.30
2018-06-03T21:16:10.258Z,9.10
2018-06-03T21:18:14.265Z,8.17
2018-06-03T21:20:18.287Z,8.47
2018-06-03T21:22:22.259Z,8.73
2018-06-03T21:24:26.317Z,9.00
2018-06-03T21:26:30.305Z,8.37
2018-06-03T21:28:34.288Z,8.23
2018-06-03T21:30:38.257Z,10.30
2018-06-03T21:32:41.995Z,9.57
2018-06-03T21:34:45.874Z,10.27
2018-06-03T21:36:49.867Z,8.90
2018-06-03T21:38:53.860Z,11.60
2018-06-03T21:40:57.590Z,11.90
2018-06-03T21:43:01.447Z,10.33
2018-06-03T21:45:05.453Z,11.67
2018-06-03T21:47:09.406Z,11.90
2018-06-03T21:49:13.666Z,13.90
2018-06-03T21:51:18.022Z,15.80
2018-06-03T21:53:22.137Z,13.23
2018-06-03T21:55:26.202Z,12.30
2018-06-03T21:57:30.409Z,13.17
2018-06-03T21:59:34.369Z,12.87
2018-06-03T22:01:38.807Z,10.90
2018-06-03T22:03:42.799Z,12.37
2018-06-03T22:05:47.288Z,12.93
2018-06-03T22:07:51.312Z,10.83
2018-06-03T22:09:55.275Z,13.77
2018-06-03T22:11:59.275Z,11.67
2018-06-03T22:14:03.227Z,18.53
2018-06-03T22:16:07.227Z,14.20
2018-06-03T22:18:11.235Z,13.47
2018-06-03T22:20:15.395Z,10.67
2018-06-03T22:22:19.440Z,13.47
2018-06-03T22:24:23.390Z,13.03
2018-06-03T22:26:27.414Z,15.77
2018-06-03T22:28:31.638Z,15.67
2018-06-03T22:30:35.562Z,15.47
2018-06-03T22:32:39.310Z,15.47
2018-06-03T22:34:43.195Z,14.33
2018-06-03T22:36:47.154Z,13.23
2018-06-03T22:38:51.121Z,13.50
2018-06-03T22:40:55.113Z,16.80
2018-06-03T22:42:59.138Z,17.13
2018-06-03T22:45:03.527Z,16.73
2018-06-03T22:47:07.844Z,17.30
2018-06-03T22:49:12.150Z,19.67
2018-06-03T22:51:16.157Z,19.43
2018-06-03T22:53:20.154Z,17.63
2018-06-03T22:55:23.905Z,16.80
2018-06-03T22:57:48.746Z,15.37
2018-06-03T22:59:52.751Z,18.77
2018-06-03T23:01:56.719Z,18.13
2018-06-03T23:04:00.974Z,19.00
2018-06-03T23:06:05.606Z,18.27
2018-06-03T23:08:09.864Z,27.33
2018-06-03T23:10:14.110Z,16.57
2018-06-03T23:12:18.405Z,18.33
2018-06-03T23:14:22.694Z,11.00
2018-06-03T23:16:27.162Z,21.87
2018-06-03T23:18:31.414Z,18.40
2018-06-03T23:20:36.189Z,17.10
2018-06-03T23:22:40.746Z,19.53
2018-06-03T23:24:45.034Z,19.40
2018-06-03T23:26:49.663Z,21.47
2018-06-03T23:28:53.947Z,16.87
2018-06-03T23:30:58.246Z,18.87
2018-06-03T23:33:02.582Z,24.10
2018-06-03T23:35:06.887Z,20.10
2018-06-03T23:37:11.150Z,18.40
2018-06-03T23:39:15.417Z,23.93
2018-06-03T23:41:19.665Z,22.07
2018-06-03T23:43:23.944Z,22.07
2018-06-03T23:45:28.222Z,21.60
2018-06-03T23:47:32.458Z,23.17
2018-06-03T23:49:37.085Z,24.23
2018-06-03T23:51:41.418Z,28.90
2018-06-03T23:53:45.737Z,23.10
2018-06-03T23:55:49.998Z,22.13
2018-06-03T23:57:54.445Z,21.33
2018-06-03T23:59:58.658Z,25.27
